createdAt,value
2022-08-19T00:02:25.411Z,23.53
2022-08-19T00:05:27.419Z,23.48
2022-08-19T00:08:29.442Z,23.46
2022-08-19T00:11:31.652Z,23.48
2022-08-19T00:14:33.592Z,23.44
2022-08-19T00:17:35.597Z,23.56
2022-08-19T00:20:43.900Z,23.57
2022-08-19T00:23:46.693Z,23.62
2022-08-19T00:26:48.726Z,23.68
2022-08-19T00:29:52.324Z,23.78
2022-08-19T00:32:57.708Z,23.85
2022-08-19T00:36:05.756Z,23.86
2022-08-19T00:39:08.049Z,23.81
2022-08-19T00:42:09.965Z,23.75
2022-08-19T00:45:18.421Z,23.70
2022-08-19T00:48:21.793Z,23.66
2022-08-19T00:51:24.528Z,23.80
2022-08-19T00:54:31.292Z,23.87
2022-08-19T00:57:43.721Z,23.89
2022-08-19T01:00:46.881Z,23.96
2022-08-19T01:03:57.591Z,23.94
2022-08-19T01:07:03.075Z,23.79
2022-08-19T01:10:07.715Z,23.80
2022-08-19T01:13:10.355Z,23.79
2022-08-19T01:16:12.570Z,23.80
2022-08-19T01:19:43.831Z,23.72
2022-08-19T01:22:53.935Z,23.71
2022-08-19T01:25:58.164Z,23.67
2022-08-19T01:29:02.256Z,23.58
2022-08-19T01:32:07.908Z,23.31
2022-08-19T01:35:31.253Z,23.41
2022-08-19T01:38:37.698Z,23.36
2022-08-19T01:41:47.466Z,23.28
2022-08-19T01:44:50.078Z,23.25
2022-08-19T01:48:01.784Z,23.17
2022-08-19T01:51:05.048Z,23.10
2022-08-19T01:54:08.281Z,23.09
2022-08-19T01:57:13.970Z,23.06
2022-08-19T02:00:18.541Z,23.03
2022-08-19T02:03:24.037Z,23.00
2022-08-19T02:06:26.874Z,22.97
2022-08-19T02:09:32.738Z,23.00
2022-08-19T02:12:38.312Z,23.04
2022-08-19T02:15:40.321Z,23.01
2022-08-19T02:18:42.688Z,22.97
2022-08-19T02:21:44.774Z,22.88
2022-08-19T02:24:49.555Z,22.94
2022-08-19T02:27:51.509Z,22.92
2022-08-19T02:30:53.302Z,22.90
2022-08-19T02:33:57.002Z,22.85
2022-08-19T02:37:03.121Z,22.84
2022-08-19T02:40:12.370Z,22.85
2022-08-19T02:43:14.874Z,22.84
2022-08-19T02:46:23.447Z,22.73
2022-08-19T02:49:25.606Z,22.78
2022-08-19T02:52:28.538Z,22.78
2022-08-19T02:55:30.946Z,22.85
2022-08-19T02:58:49.508Z,22.85
2022-08-19T03:01:54.897Z,22.85
2022-08-19T03:04:56.815Z,22.79
2022-08-19T03:08:00.751Z,22.74
2022-08-19T03:11:03.182Z,22.74
2022-08-19T03:14:07.646Z,22.79
2022-08-19T03:17:09.882Z,22.82
2022-08-19T03:20:11.911Z,22.80
2022-08-19T03:23:16.285Z,22.74
2022-08-19T03:26:18.174Z,22.72
2022-08-19T03:29:30.740Z,22.68
2022-08-19T03:32:35.284Z,22.62
2022-08-19T03:35:44.637Z,22.62
2022-08-19T03:38:49.557Z,22.67
2022-08-19T03:42:32.484Z,22.70
2022-08-19T03:45:23.961Z,22.67
2022-08-19T03:48:26.672Z,22.59
2022-08-19T03:51:32.249Z,22.67
2022-08-19T03:54:34.552Z,22.68
2022-08-19T03:57:37.562Z,22.68
2022-08-19T04:00:43.571Z,22.55
2022-08-19T04:03:48.315Z,22.63
2022-08-19T04:06:50.355Z,22.76
2022-08-19T04:09:53.359Z,22.83
2022-08-19T04:12:55.594Z,22.90
2022-08-19T04:15:57.895Z,22.95
2022-08-19T04:19:02.365Z,22.97
2022-08-19T04:22:05.616Z,22.90
2022-08-19T04:25:08.092Z,22.91
2022-08-19T04:28:11.820Z,23.10
2022-08-19T04:31:16.978Z,23.22
2022-08-19T04:34:25.791Z,23.58
2022-08-19T04:37:29.539Z,23.96
2022-08-19T04:41:14.936Z,24.39
2022-08-19T04:44:22.742Z,24.80
2022-08-19T04:47:47.819Z,25.17
2022-08-19T04:50:47.991Z,25.27
2022-08-19T04:53:50.470Z,25.01
2022-08-19T04:56:55.728Z,25.02
2022-08-19T04:59:59.551Z,25.14
2022-08-19T05:03:03.709Z,25.22
2022-08-19T05:06:12.883Z,25.23
2022-08-19T05:09:17.209Z,25.41
2022-08-19T05:12:19.465Z,25.60
2022-08-19T05:15:21.294Z,25.75
2022-08-19T05:18:41.986Z,25.72
2022-08-19T05:22:05.457Z,25.80
2022-08-19T05:25:13.012Z,25.72
2022-08-19T05:28:15.870Z,25.78
2022-08-19T05:31:18.130Z,25.76
2022-08-19T05:34:22.910Z,25.88
2022-08-19T05:37:28.023Z,25.96
2022-08-19T05:40:30.505Z,26.15
2022-08-19T05:43:32.457Z,26.31
2022-08-19T05:46:34.780Z,26.46
2022-08-19T05:49:38.157Z,26.61
2022-08-19T05:52:43.804Z,26.88
2022-08-19T05:55:54.224Z,27.05
2022-08-19T05:59:02.583Z,27.05
2022-08-19T06:02:05.799Z,27.11
2022-08-19T06:05:10.303Z,27.06
2022-08-19T06:08:12.557Z,27.33
2022-08-19T06:11:21.780Z,27.60
2022-08-19T06:14:28.050Z,27.80
2022-08-19T06:17:32.077Z,27.95
2022-08-19T06:20:54.956Z,28.06
2022-08-19T06:23:58.601Z,28.11
2022-08-19T06:27:02.858Z,28.24
2022-08-19T06:30:06.004Z,28.15
2022-08-19T06:33:09.437Z,28.32
2022-08-19T06:36:42.357Z,28.23
2022-08-19T06:39:46.559Z,28.44
2022-08-19T06:42:54.509Z,28.85
2022-08-19T06:46:00.004Z,29.26
2022-08-19T06:49:04.564Z,29.32
2022-08-19T06:52:08.150Z,29.53
2022-08-19T06:55:12.396Z,29.76
2022-08-19T06:58:15.410Z,29.90
2022-08-19T07:01:17.415Z,30.39
2022-08-19T07:04:25.537Z,30.50
2022-08-19T07:07:28.788Z,30.70
2022-08-19T07:10:33.418Z,30.91
2022-08-19T07:13:40.169Z,30.79
2022-08-19T07:16:43.106Z,30.98
2022-08-19T07:19:46.112Z,31.08
2022-08-19T07:22:49.496Z,31.36
2022-08-19T07:25:53.170Z,31.15
2022-08-19T07:28:56.792Z,30.66
2022-08-19T07:32:01.381Z,30.48
2022-08-19T07:35:04.722Z,30.24
2022-08-19T07:38:07.025Z,30.47
2022-08-19T07:41:12.209Z,30.54
2022-08-19T07:44:15.723Z,30.60
2022-08-19T07:47:50.347Z,30.50
2022-08-19T07:50:41.926Z,30.49
2022-08-19T07:53:47.775Z,30.37
2022-08-19T07:56:52.417Z,30.85
2022-08-19T07:59:54.592Z,31.06
2022-08-19T08:02:57.411Z,31.15
2022-08-19T08:06:18.306Z,31.28
2022-08-19T08:09:33.683Z,30.91
2022-08-19T08:12:42.432Z,31.14
2022-08-19T08:15:46.252Z,31.45
2022-08-19T08:18:50.573Z,31.42
2022-08-19T08:21:57.310Z,31.26
2022-08-19T08:25:04.387Z,31.67
2022-08-19T08:28:11.270Z,31.71
2022-08-19T08:31:14.671Z,31.84
2022-08-19T08:34:16.901Z,31.97
2022-08-19T08:37:20.428Z,32.27
2022-08-19T08:40:44.586Z,32.40
2022-08-19T08:43:48.960Z,32.83
2022-08-19T08:46:57.177Z,32.95
2022-08-19T08:50:27.612Z,33.25
2022-08-19T08:53:32.501Z,33.39
2022-08-19T08:56:36.541Z,33.29
2022-08-19T08:59:42.340Z,33.02
2022-08-19T09:02:50.831Z,33.09
2022-08-19T09:06:47.420Z,33.46
2022-08-19T09:09:52.661Z,33.42
2022-08-19T09:13:17.775Z,33.42
2022-08-19T09:16:27.736Z,33.55
2022-08-19T09:19:31.736Z,33.46
2022-08-19T09:22:36.696Z,33.78
2022-08-19T09:25:41.598Z,33.69
2022-08-19T09:28:48.309Z,33.78
2022-08-19T09:31:51.290Z,33.74
2022-08-19T09:34:56.143Z,33.49
2022-08-19T09:38:00.692Z,33.38
2022-08-19T09:41:08.047Z,34.08
2022-08-19T09:44:12.909Z,34.33
2022-08-19T09:47:15.429Z,33.73
2022-08-19T09:50:24.409Z,33.93
2022-08-19T09:53:27.717Z,34.06
2022-08-19T09:56:33.952Z,34.06
2022-08-19T09:59:36.560Z,34.01
2022-08-19T10:02:39.915Z,34.33
2022-08-19T10:05:50.659Z,34.92
2022-08-19T10:08:57.331Z,34.85
2022-08-19T10:12:02.896Z,34.75
2022-08-19T10:15:07.341Z,34.99
2022-08-19T10:18:09.981Z,34.94
2022-08-19T10:21:17.135Z,35.14
2022-08-19T10:24:21.344Z,34.45
2022-08-19T10:27:23.901Z,34.56
2022-08-19T10:30:29.055Z,34.76
2022-08-19T10:33:38.895Z,34.75
2022-08-19T10:36:56.565Z,34.84
2022-08-19T10:40:04.702Z,35.21
2022-08-19T10:43:06.667Z,35.45
2022-08-19T10:46:14.062Z,35.57
2022-08-19T10:49:20.310Z,35.46
2022-08-19T10:52:34.369Z,35.63
2022-08-19T10:55:54.931Z,35.62
2022-08-19T10:58:58.167Z,35.47
2022-08-19T11:02:02.384Z,35.61
2022-08-19T11:05:12.675Z,35.90
2022-08-19T11:08:22.516Z,36.20
2022-08-19T11:11:25.419Z,36.40
2022-08-19T11:14:28.394Z,36.54
2022-08-19T11:17:34.577Z,35.90
2022-08-19T11:20:36.802Z,36.27
2022-08-19T11:23:38.854Z,36.31
2022-08-19T11:26:42.137Z,36.85
2022-08-19T11:29:44.170Z,36.96
2022-08-19T11:32:49.359Z,37.26
2022-08-19T11:35:51.737Z,36.94
2022-08-19T11:38:55.633Z,36.85
2022-08-19T11:41:59.724Z,36.89
2022-08-19T11:45:02.119Z,36.91
2022-08-19T11:48:04.383Z,36.71
2022-08-19T11:51:18.670Z,36.40
2022-08-19T11:54:20.571Z,36.82
2022-08-19T11:57:22.685Z,36.73
2022-08-19T12:00:24.714Z,37.00
2022-08-19T12:03:27.286Z,36.83
2022-08-19T12:06:32.916Z,37.11
2022-08-19T12:09:37.764Z,36.28
2022-08-19T12:12:45.991Z,36.29
2022-08-19T12:15:56.040Z,36.56
2022-08-19T12:19:00.244Z,36.49
2022-08-19T12:22:04.522Z,36.73
2022-08-19T12:25:07.220Z,36.99
2022-08-19T12:28:09.074Z,36.89
2022-08-19T12:31:15.039Z,36.53
2022-08-19T12:34:17.279Z,36.52
2022-08-19T12:37:21.669Z,36.42
2022-08-19T12:40:23.997Z,36.67
2022-08-19T12:43:30.578Z,36.58
2022-08-19T12:46:35.553Z,36.83
2022-08-19T12:49:53.573Z,36.47
2022-08-19T12:52:58.906Z,36.70
2022-08-19T12:56:01.245Z,36.80
2022-08-19T12:59:04.359Z,36.97
2022-08-19T13:02:07.979Z,37.24
2022-08-19T13:05:12.833Z,37.16
2022-08-19T13:08:15.515Z,36.58
2022-08-19T13:11:24.554Z,36.11
2022-08-19T13:14:27.793Z,36.94
2022-08-19T13:17:29.857Z,37.35
2022-08-19T13:20:32.037Z,37.56
2022-08-19T13:23:35.586Z,37.36
2022-08-19T13:26:37.520Z,37.22
2022-08-19T13:30:00.215Z,36.46
2022-08-19T13:33:12.492Z,35.72
2022-08-19T13:36:14.676Z,35.50
2022-08-19T13:39:17.197Z,35.66
2022-08-19T13:42:20.538Z,35.57
2022-08-19T13:45:25.489Z,35.38
2022-08-19T13:48:30.179Z,35.16
2022-08-19T13:51:32.205Z,35.03
2022-08-19T13:54:45.034Z,34.93
2022-08-19T13:57:47.366Z,34.71
2022-08-19T14:00:49.721Z,34.53
2022-08-19T14:03:52.156Z,33.84
2022-08-19T14:06:54.328Z,31.47
2022-08-19T14:09:56.409Z,29.66
2022-08-19T14:13:00.349Z,28.84
2022-08-19T14:16:03.294Z,28.03
2022-08-19T14:19:05.631Z,27.57
2022-08-19T14:22:07.766Z,27.21
2022-08-19T14:25:12.842Z,27.60
2022-08-19T14:28:14.977Z,27.39
2022-08-19T14:31:20.308Z,27.25
2022-08-19T14:34:23.749Z,27.09
2022-08-19T14:37:26.542Z,27.14
2022-08-19T14:40:31.339Z,26.94
2022-08-19T14:43:33.308Z,26.65
2022-08-19T14:46:35.426Z,26.54
2022-08-19T14:49:41.174Z,26.28
2022-08-19T14:52:48.038Z,26.21
2022-08-19T14:55:50.360Z,26.12
2022-08-19T14:58:55.362Z,26.08
2022-08-19T15:01:57.630Z,26.03
2022-08-19T15:04:59.886Z,26.05
2022-08-19T15:08:05.404Z,25.82
2022-08-19T15:11:12.975Z,25.66
2022-08-19T15:14:17.789Z,25.78
2022-08-19T15:17:20.726Z,26.43
2022-08-19T15:20:23.968Z,26.38
2022-08-19T15:23:26.859Z,25.79
2022-08-19T15:26:33.412Z,25.83
2022-08-19T15:29:39.846Z,25.56
2022-08-19T15:32:42.852Z,25.54
2022-08-19T15:35:48.479Z,25.82
2022-08-19T15:38:53.581Z,25.98
2022-08-19T15:41:56.013Z,25.90
2022-08-19T15:45:00.364Z,25.44
2022-08-19T15:48:05.491Z,25.69
2022-08-19T15:51:07.478Z,25.64
2022-08-19T15:54:13.223Z,25.76
2022-08-19T15:57:27.431Z,25.79
2022-08-19T16:00:52.689Z,25.90
2022-08-19T16:04:16.173Z,25.97
2022-08-19T16:07:23.471Z,25.62
2022-08-19T16:10:27.973Z,25.53
2022-08-19T16:13:30.288Z,25.30
2022-08-19T16:16:35.265Z,25.34
2022-08-19T16:19:38.262Z,25.04
2022-08-19T16:22:41.735Z,24.89
2022-08-19T16:25:44.093Z,24.70
2022-08-19T16:28:50.341Z,24.77
2022-08-19T16:31:54.843Z,24.85
2022-08-19T16:35:04.615Z,24.75
2022-08-19T16:38:10.271Z,24.69
2022-08-19T16:41:14.899Z,24.71
2022-08-19T16:44:19.961Z,24.59
2022-08-19T16:47:25.437Z,24.44
2022-08-19T16:50:47.733Z,24.33
2022-08-19T16:53:53.128Z,24.34
2022-08-19T16:56:56.456Z,24.29
2022-08-19T16:59:58.805Z,24.04
2022-08-19T17:03:13.098Z,23.91
2022-08-19T17:06:21.348Z,23.93
2022-08-19T17:09:26.082Z,23.88
2022-08-19T17:12:31.602Z,23.66
2022-08-19T17:15:35.251Z,23.01
2022-08-19T17:18:37.595Z,23.14
2022-08-19T17:21:40.938Z,22.72
2022-08-19T17:24:43.078Z,22.41
2022-08-19T17:27:45.931Z,22.30
2022-08-19T17:30:48.526Z,22.27
2022-08-19T17:33:51.295Z,22.57
2022-08-19T17:36:57.126Z,22.66
2022-08-19T17:40:00.280Z,22.58
2022-08-19T17:43:02.946Z,22.64
2022-08-19T17:46:06.244Z,22.71
2022-08-19T17:49:08.832Z,22.71
2022-08-19T17:52:12.007Z,22.77
2022-08-19T17:55:14.410Z,22.61
2022-08-19T17:58:16.951Z,22.64
2022-08-19T18:01:22.056Z,22.55
2022-08-19T18:07:30.899Z,22.61
2022-08-19T18:10:35.210Z,22.68
2022-08-19T18:13:37.899Z,22.44
2022-08-19T18:16:40.447Z,21.87
2022-08-19T18:19:44.093Z,21.73
2022-08-19T18:22:48.467Z,22.13
2022-08-19T18:25:50.906Z,22.07
2022-08-19T18:28:54.314Z,22.12
2022-08-19T18:31:58.123Z,22.27
2022-08-19T18:35:06.667Z,22.08
2022-08-19T18:38:29.027Z,22.15
2022-08-19T18:41:49.650Z,22.14
2022-08-19T18:45:10.249Z,22.34
2022-08-19T18:48:30.711Z,22.32
2022-08-19T18:51:33.326Z,22.29
2022-08-19T18:54:36.160Z,22.27
2022-08-19T18:57:38.464Z,21.98
2022-08-19T19:00:41.329Z,22.03
2022-08-19T19:03:47.149Z,21.78
2022-08-19T19:06:49.497Z,21.28
2022-08-19T19:09:52.263Z,20.99
2022-08-19T19:12:54.806Z,21.04
2022-08-19T19:15:57.287Z,21.41
2022-08-19T19:19:03.155Z,21.59
2022-08-19T19:22:05.652Z,21.62
2022-08-19T19:25:09.042Z,21.58
2022-08-19T19:28:16.019Z,21.54
2022-08-19T19:31:27.044Z,21.69
2022-08-19T19:34:30.845Z,21.73
2022-08-19T19:37:33.650Z,21.54
2022-08-19T19:40:36.176Z,21.76
2022-08-19T19:43:41.084Z,21.86
2022-08-19T19:46:44.286Z,21.64
2022-08-19T19:53:16.389Z,21.57
2022-08-19T19:56:19.126Z,21.57
2022-08-19T19:59:21.373Z,21.46
2022-08-19T20:02:25.442Z,21.52
2022-08-19T20:05:28.125Z,21.41
2022-08-19T20:08:49.082Z,21.43
2022-08-19T20:11:54.909Z,21.36
2022-08-19T20:14:57.084Z,21.40
2022-08-19T20:18:01.082Z,21.49
2022-08-19T20:21:04.086Z,21.55
2022-08-19T20:24:09.592Z,21.49
2022-08-19T20:27:13.018Z,21.39
2022-08-19T20:30:19.613Z,21.43
2022-08-19T20:33:23.246Z,21.44
2022-08-19T20:36:25.425Z,21.50
2022-08-19T20:39:27.589Z,21.51
2022-08-19T20:42:29.797Z,21.43
2022-08-19T20:45:36.684Z,21.54
2022-08-19T20:48:43.432Z,21.45
2022-08-19T20:51:47.334Z,21.43
2022-08-19T20:54:49.761Z,21.38
2022-08-19T20:57:52.371Z,21.52
2022-08-19T21:00:57.531Z,21.51
2022-08-19T21:03:59.672Z,21.40
2022-08-19T21:07:02.592Z,21.46
2022-08-19T21:10:05.606Z,21.25
2022-08-19T21:13:07.810Z,21.36
2022-08-19T21:16:09.808Z,21.16
2022-08-19T21:19:12.141Z,20.86
2022-08-19T21:22:14.458Z,20.78
2022-08-19T21:25:17.824Z,20.99
2022-08-19T21:28:29.879Z,21.05
2022-08-19T21:31:39.007Z,21.16
2022-08-19T21:34:41.531Z,21.09
2022-08-19T21:37:48.768Z,21.18
2022-08-19T21:40:51.325Z,21.17
2022-08-19T21:43:53.456Z,21.19
2022-08-19T21:46:59.590Z,21.34
2022-08-19T21:50:01.463Z,21.31
2022-08-19T21:53:05.316Z,21.30
2022-08-19T21:56:07.726Z,21.23
2022-08-19T21:59:10.079Z,21.19
2022-08-19T22:02:21.533Z,21.25
2022-08-19T22:05:24.950Z,21.25
2022-08-19T22:08:27.347Z,21.24
2022-08-19T22:11:29.839Z,21.32
2022-08-19T22:14:33.778Z,21.18
2022-08-19T22:17:36.762Z,21.18
2022-08-19T22:20:38.904Z,21.25
2022-08-19T22:23:42.402Z,21.20
2022-08-19T22:26:47.356Z,21.23
2022-08-19T22:29:52.505Z,21.26
2022-08-19T22:33:02.114Z,21.20
2022-08-19T22:36:07.649Z,21.27
2022-08-19T22:42:18.742Z,21.33
2022-08-19T22:45:21.026Z,21.31
2022-08-19T22:48:28.915Z,21.30
2022-08-19T22:51:49.219Z,21.01
2022-08-19T22:54:53.700Z,20.83
2022-08-19T22:57:56.966Z,20.85
2022-08-19T23:00:59.318Z,20.95
2022-08-19T23:04:03.911Z,21.03
2022-08-19T23:07:06.445Z,21.02
2022-08-19T23:10:12.691Z,21.11
2022-08-19T23:13:17.354Z,21.08
2022-08-19T23:16:19.848Z,21.13
2022-08-19T23:19:22.456Z,21.13
2022-08-19T23:22:25.262Z,21.09
2022-08-19T23:25:30.666Z,21.14
2022-08-19T23:28:51.513Z,21.08
2022-08-19T23:31:53.312Z,20.98
2022-08-19T23:34:57.093Z,21.03
2022-08-19T23:38:01.181Z,21.14
2022-08-19T23:41:06.745Z,21.14
2022-08-19T23:44:14.735Z,21.21
2022-08-19T23:47:17.180Z,21.14
2022-08-19T23:50:19.683Z,21.14
2022-08-19T23:53:21.918Z,21.10
2022-08-19T23:56:23.975Z,21.12
2022-08-19T23:59:25.854Z,21.15
